sim
Sign-in with your pilot id or email,
or register
Callsign
Passwort

Schedule Details

Flight Number: DLH2511
Departure: Birmingham Airport (EGBB) at 17:45
Arrival: Munich Airport (EDDM) at 19:30
Route: Lufthansa Passenger Schedule. Enter filed route here before submitting Pirep.

Weather Information
Getting current METAR information for EGBB 230850Z 20007KT 150V230 9999 SCT008 BKN011 14/13 Q0999
Getting current METAR information for EDDM 230850Z 26009KT 9999 VCSH BKN012 FEW015CB BKN020 16/15 Q1010 TEMPO 4000 SHRA

Schedule Frequency

Route Map